createdAt,value
2022-08-26T00:01:03.537Z,27.73
2022-08-26T00:03:31.381Z,27.75
2022-08-26T00:05:59.083Z,27.71
2022-08-26T00:08:26.388Z,27.75
2022-08-26T00:10:54.124Z,27.74
2022-08-26T00:13:21.425Z,27.73
2022-08-26T00:15:50.319Z,27.53
2022-08-26T00:18:22.175Z,27.58
2022-08-26T00:20:50.293Z,27.44
2022-08-26T00:23:17.981Z,27.57
2022-08-26T00:25:45.309Z,27.53
2022-08-26T00:28:12.765Z,27.46
2022-08-26T00:30:41.485Z,27.50
2022-08-26T00:33:09.665Z,27.33
2022-08-26T00:35:38.130Z,27.23
2022-08-26T00:38:11.524Z,27.32
2022-08-26T00:40:43.047Z,26.99
2022-08-26T00:43:10.753Z,27.20
2022-08-26T00:45:40.494Z,27.18
2022-08-26T00:48:08.403Z,27.14
2022-08-26T00:50:40.871Z,27.17
2022-08-26T00:53:24.122Z,27.18
2022-08-26T00:56:05.734Z,27.12
2022-08-26T00:58:34.100Z,27.05
2022-08-26T01:01:01.883Z,26.95
2022-08-26T01:03:29.548Z,27.04
2022-08-26T01:05:57.230Z,26.86
2022-08-26T01:08:25.136Z,26.87
2022-08-26T01:10:52.440Z,26.93
2022-08-26T01:13:23.316Z,26.82
2022-08-26T01:15:52.447Z,26.70
2022-08-26T01:18:20.609Z,26.74
2022-08-26T01:20:50.839Z,26.46
2022-08-26T01:23:18.610Z,26.47
2022-08-26T01:25:51.790Z,26.32
2022-08-26T01:28:21.781Z,26.17
2022-08-26T01:30:49.266Z,26.14
2022-08-26T01:33:17.860Z,26.32
2022-08-26T01:35:46.382Z,26.34
2022-08-26T01:38:16.243Z,26.39
2022-08-26T01:40:44.138Z,26.37
2022-08-26T01:43:14.773Z,26.49
2022-08-26T01:45:42.568Z,26.54
2022-08-26T01:48:11.699Z,26.50
2022-08-26T01:50:39.295Z,26.29
2022-08-26T01:53:08.019Z,26.20
2022-08-26T01:55:37.181Z,26.15
2022-08-26T01:58:17.609Z,26.22
2022-08-26T02:00:46.262Z,26.14
2022-08-26T02:03:17.133Z,26.28
2022-08-26T02:05:44.861Z,26.18
2022-08-26T02:08:22.995Z,26.23
2022-08-26T02:10:54.672Z,26.33
2022-08-26T02:13:22.677Z,26.28
2022-08-26T02:15:52.310Z,26.24
2022-08-26T02:18:20.126Z,26.31
2022-08-26T02:20:47.856Z,26.29
2022-08-26T02:23:18.985Z,26.16
2022-08-26T02:25:54.105Z,26.07
2022-08-26T02:28:21.508Z,26.01
2022-08-26T02:30:55.641Z,25.92
2022-08-26T02:33:23.025Z,25.74
2022-08-26T02:35:50.251Z,25.87
2022-08-26T02:38:18.359Z,26.00
2022-08-26T02:40:45.615Z,25.99
2022-08-26T02:43:15.453Z,26.07
2022-08-26T02:45:43.052Z,26.06
2022-08-26T02:48:11.830Z,26.01
2022-08-26T02:50:39.679Z,25.94
2022-08-26T02:53:07.772Z,25.93
2022-08-26T02:55:35.440Z,25.96
2022-08-26T02:58:02.961Z,25.98
2022-08-26T03:00:31.424Z,25.87
2022-08-26T03:02:59.013Z,25.92
2022-08-26T03:05:26.375Z,25.96
2022-08-26T03:07:53.987Z,25.80
2022-08-26T03:10:21.437Z,25.77
2022-08-26T03:12:48.826Z,25.76
2022-08-26T03:15:18.140Z,25.75
2022-08-26T03:17:46.325Z,25.81
2022-08-26T03:20:13.789Z,25.76
2022-08-26T03:22:44.907Z,25.70
2022-08-26T03:25:14.032Z,25.69
2022-08-26T03:27:42.976Z,25.75
2022-08-26T03:30:29.633Z,25.77
2022-08-26T03:32:57.207Z,25.83
2022-08-26T03:35:25.771Z,25.76
2022-08-26T03:37:53.595Z,25.81
2022-08-26T03:40:21.024Z,25.66
2022-08-26T03:42:50.044Z,25.76
2022-08-26T03:45:17.983Z,25.67
2022-08-26T03:47:45.933Z,25.62
2022-08-26T03:50:16.607Z,25.73
2022-08-26T03:52:51.557Z,25.74
2022-08-26T03:55:19.108Z,25.63
2022-08-26T03:57:51.258Z,25.59
2022-08-26T04:00:19.096Z,25.70
2022-08-26T04:02:48.690Z,25.75
2022-08-26T04:05:17.524Z,25.84
2022-08-26T04:07:45.329Z,25.69
2022-08-26T04:10:13.985Z,25.69
2022-08-26T04:12:42.573Z,25.75
2022-08-26T04:15:11.483Z,25.72
2022-08-26T04:17:39.103Z,25.74
2022-08-26T04:20:06.962Z,25.81
2022-08-26T04:22:34.191Z,25.86
2022-08-26T04:25:02.391Z,25.89
2022-08-26T04:27:29.683Z,25.88
2022-08-26T04:29:57.334Z,25.88
2022-08-26T04:32:25.306Z,25.90
2022-08-26T04:34:52.550Z,25.88
2022-08-26T04:37:20.207Z,25.88
2022-08-26T04:39:52.790Z,25.88
2022-08-26T04:42:25.841Z,25.85
2022-08-26T04:44:53.741Z,25.72
2022-08-26T04:47:21.108Z,25.75
2022-08-26T04:49:48.374Z,25.83
2022-08-26T04:52:15.979Z,25.97
2022-08-26T04:54:43.388Z,26.08
2022-08-26T04:57:11.143Z,26.18
2022-08-26T04:59:39.529Z,26.14
2022-08-26T05:02:07.291Z,26.32
2022-08-26T05:04:34.623Z,26.34
2022-08-26T05:07:02.687Z,26.45
2022-08-26T05:09:30.389Z,26.68
2022-08-26T05:11:57.840Z,27.21
2022-08-26T05:14:26.624Z,27.51
2022-08-26T05:16:54.015Z,27.49
2022-08-26T05:19:21.300Z,27.38
2022-08-26T05:21:49.359Z,27.62
2022-08-26T05:24:17.160Z,27.83
2022-08-26T05:26:45.270Z,28.05
2022-08-26T05:29:12.999Z,28.12
2022-08-26T05:31:40.332Z,28.05
2022-08-26T05:34:08.400Z,28.13
2022-08-26T05:36:36.956Z,28.33
2022-08-26T05:39:05.193Z,28.46
2022-08-26T05:41:34.259Z,28.70
2022-08-26T05:44:05.918Z,29.23
2022-08-26T05:46:33.336Z,29.65
2022-08-26T05:49:01.770Z,29.99
2022-08-26T05:51:30.554Z,30.10
2022-08-26T05:53:58.716Z,30.23
2022-08-26T05:56:27.776Z,30.36
2022-08-26T05:58:56.027Z,30.26
2022-08-26T06:01:26.490Z,30.21
2022-08-26T06:03:56.315Z,30.05
2022-08-26T06:06:27.291Z,29.81
2022-08-26T06:08:59.099Z,29.77
2022-08-26T06:11:26.912Z,29.76
2022-08-26T06:13:54.631Z,29.78
2022-08-26T06:16:23.379Z,29.79
2022-08-26T06:18:51.753Z,29.75
2022-08-26T06:21:18.928Z,29.66
2022-08-26T06:24:06.142Z,29.69
2022-08-26T06:26:33.686Z,29.53
2022-08-26T06:29:01.688Z,29.51
2022-08-26T06:31:34.932Z,29.53
2022-08-26T06:34:05.251Z,29.55
2022-08-26T06:36:37.877Z,29.53
2022-08-26T06:39:06.294Z,29.61
2022-08-26T06:41:34.520Z,29.58
2022-08-26T06:44:02.517Z,29.48
2022-08-26T06:46:30.124Z,29.45
2022-08-26T06:49:00.651Z,29.61
2022-08-26T06:51:29.023Z,29.44
2022-08-26T06:53:59.216Z,29.36
2022-08-26T06:56:29.694Z,29.30
2022-08-26T06:58:57.328Z,29.59
2022-08-26T07:01:26.227Z,29.32
2022-08-26T07:03:54.981Z,28.97
2022-08-26T07:06:25.325Z,29.15
2022-08-26T07:08:53.518Z,28.78
2022-08-26T07:11:21.192Z,28.65
2022-08-26T07:13:50.185Z,28.98
2022-08-26T07:16:19.337Z,28.84
2022-08-26T07:18:46.903Z,28.88
2022-08-26T07:21:15.454Z,29.21
2022-08-26T07:23:42.810Z,29.11
2022-08-26T07:26:16.329Z,28.98
2022-08-26T07:28:44.544Z,28.86
2022-08-26T07:31:12.879Z,29.09
2022-08-26T07:33:40.689Z,28.92
2022-08-26T07:36:09.086Z,29.29
2022-08-26T07:38:36.605Z,29.04
2022-08-26T07:41:03.935Z,28.89
2022-08-26T07:43:31.556Z,29.07
2022-08-26T07:45:58.857Z,29.37
2022-08-26T07:48:26.124Z,29.63
2022-08-26T07:50:53.836Z,29.54
2022-08-26T07:53:21.489Z,29.39
2022-08-26T07:55:51.648Z,29.53
2022-08-26T07:58:19.549Z,29.93
2022-08-26T08:00:47.451Z,30.03
2022-08-26T08:03:15.145Z,29.86
2022-08-26T08:05:42.488Z,30.03
2022-08-26T08:08:26.365Z,30.35
2022-08-26T08:10:55.773Z,30.38
2022-08-26T08:13:23.503Z,30.60
2022-08-26T08:15:51.039Z,30.40
2022-08-26T08:18:20.405Z,29.59
2022-08-26T08:21:04.732Z,30.30
2022-08-26T08:23:35.600Z,30.22
2022-08-26T08:26:07.281Z,30.29
2022-08-26T08:28:36.730Z,30.47
2022-08-26T08:31:04.591Z,30.47
2022-08-26T08:33:33.680Z,30.56
2022-08-26T08:36:01.523Z,30.80
2022-08-26T08:38:29.350Z,30.60
2022-08-26T08:40:56.634Z,31.01
2022-08-26T08:43:24.174Z,30.98
2022-08-26T08:45:55.014Z,30.88
2022-08-26T08:48:27.906Z,30.57
2022-08-26T08:50:56.630Z,30.78
2022-08-26T08:53:24.696Z,31.23
2022-08-26T08:56:30.880Z,31.12
2022-08-26T08:59:38.515Z,30.87
2022-08-26T09:02:10.036Z,31.43
2022-08-26T09:04:37.986Z,31.53
2022-08-26T09:07:06.900Z,31.92
2022-08-26T09:09:35.245Z,31.62
2022-08-26T09:12:03.251Z,31.93
2022-08-26T09:14:31.567Z,32.19
2022-08-26T09:16:58.897Z,32.13
2022-08-26T09:19:26.595Z,32.34
2022-08-26T09:21:57.553Z,32.53
2022-08-26T09:24:28.631Z,32.38
2022-08-26T09:26:58.940Z,32.37
2022-08-26T09:29:27.466Z,32.52
2022-08-26T09:32:22.149Z,32.83
2022-08-26T09:34:57.620Z,32.27
2022-08-26T09:37:43.486Z,32.77
2022-08-26T09:40:19.266Z,32.84
2022-08-26T09:42:48.209Z,32.83
2022-08-26T09:45:16.989Z,33.00
2022-08-26T09:47:47.310Z,32.34
2022-08-26T09:50:28.854Z,32.98
2022-08-26T09:53:13.137Z,33.23
2022-08-26T09:55:42.148Z,33.14
2022-08-26T09:58:12.764Z,33.47
2022-08-26T10:00:41.975Z,33.12
2022-08-26T10:03:11.093Z,33.13
2022-08-26T10:05:43.806Z,33.68
2022-08-26T10:08:21.029Z,33.69
2022-08-26T10:10:53.319Z,33.58
2022-08-26T10:13:21.017Z,33.63
2022-08-26T10:16:05.875Z,33.78
2022-08-26T10:18:34.794Z,34.06
2022-08-26T10:21:07.804Z,34.21
2022-08-26T10:26:22.290Z,34.12
2022-08-26T10:29:01.338Z,34.27
2022-08-26T10:31:40.160Z,34.43
2022-08-26T10:34:08.807Z,34.58
2022-08-26T10:37:10.783Z,34.98
2022-08-26T10:39:36.956Z,35.00
2022-08-26T10:42:05.554Z,34.76
2022-08-26T10:44:33.408Z,35.13
2022-08-26T10:47:02.266Z,34.92
2022-08-26T10:49:29.960Z,35.23
2022-08-26T10:52:00.887Z,35.68
2022-08-26T10:54:37.964Z,35.53
2022-08-26T10:57:15.398Z,35.24
2022-08-26T10:59:48.794Z,35.41
2022-08-26T11:02:24.989Z,35.66
2022-08-26T11:05:01.006Z,35.68
2022-08-26T11:07:35.293Z,35.24
2022-08-26T11:10:02.900Z,35.72
2022-08-26T11:12:36.415Z,35.61
2022-08-26T11:15:24.731Z,36.14
2022-08-26T11:17:52.179Z,35.88
2022-08-26T11:20:22.525Z,36.03
2022-08-26T11:22:51.561Z,36.17
2022-08-26T11:25:19.341Z,35.83
2022-08-26T11:27:52.927Z,35.69
2022-08-26T11:30:21.134Z,36.05
2022-08-26T11:32:52.873Z,35.55
2022-08-26T11:35:20.517Z,35.58
2022-08-26T11:37:47.960Z,36.21
2022-08-26T11:40:17.983Z,36.08
2022-08-26T11:42:49.653Z,36.04
2022-08-26T11:45:37.680Z,36.12
2022-08-26T11:48:21.336Z,36.32
2022-08-26T11:50:55.437Z,36.26
2022-08-26T11:53:23.185Z,36.14
2022-08-26T11:55:51.011Z,36.04
2022-08-26T11:58:21.179Z,35.67
2022-08-26T12:00:49.785Z,35.58
2022-08-26T12:03:18.537Z,35.61
2022-08-26T12:05:46.752Z,35.54
2022-08-26T12:08:16.740Z,35.72
2022-08-26T12:10:44.544Z,35.66
2022-08-26T12:13:25.087Z,35.88
2022-08-26T12:15:55.865Z,35.33
2022-08-26T12:18:28.769Z,34.94
2022-08-26T12:21:01.284Z,35.44
2022-08-26T12:23:35.150Z,35.38
2022-08-26T12:26:10.458Z,35.46
2022-08-26T12:28:55.044Z,35.17
2022-08-26T12:31:27.615Z,35.67
2022-08-26T12:33:55.417Z,35.60
2022-08-26T12:36:24.605Z,35.85
2022-08-26T12:38:53.750Z,35.83
2022-08-26T12:41:44.538Z,35.95
2022-08-26T12:44:30.726Z,35.55
2022-08-26T12:47:02.248Z,35.46
2022-08-26T12:49:29.602Z,35.21
2022-08-26T12:51:56.945Z,34.80
2022-08-26T12:54:44.527Z,35.11
2022-08-26T12:57:12.587Z,35.36
2022-08-26T12:59:40.258Z,35.17
2022-08-26T13:02:07.732Z,35.39
2022-08-26T13:04:38.256Z,35.50
2022-08-26T13:07:32.036Z,35.38
2022-08-26T13:09:59.798Z,35.37
2022-08-26T13:12:27.442Z,34.92
2022-08-26T13:14:54.940Z,35.38
2022-08-26T13:17:22.235Z,35.03
2022-08-26T13:19:49.794Z,35.55
2022-08-26T13:22:19.402Z,35.51
2022-08-26T13:24:46.718Z,35.24
2022-08-26T13:27:14.686Z,35.70
2022-08-26T13:29:42.062Z,35.26
2022-08-26T13:32:09.670Z,35.61
2022-08-26T13:34:38.355Z,35.58
2022-08-26T13:37:06.026Z,35.79
2022-08-26T13:39:33.397Z,35.78
2022-08-26T13:42:01.002Z,35.89
2022-08-26T13:44:28.300Z,35.90
2022-08-26T13:46:55.738Z,35.78
2022-08-26T13:49:23.446Z,35.88
2022-08-26T13:51:50.719Z,35.67
2022-08-26T13:54:18.038Z,35.77
2022-08-26T13:56:46.015Z,35.84
2022-08-26T13:59:13.327Z,35.74
2022-08-26T14:01:40.618Z,35.65
2022-08-26T14:04:08.730Z,35.30
2022-08-26T14:06:36.302Z,35.50
2022-08-26T14:09:04.197Z,35.62
2022-08-26T14:11:41.184Z,35.77
2022-08-26T14:14:19.199Z,35.77
2022-08-26T14:16:58.755Z,35.46
2022-08-26T14:19:30.865Z,35.70
2022-08-26T14:22:00.806Z,35.73
2022-08-26T14:24:28.963Z,36.04
2022-08-26T14:26:56.479Z,35.81
2022-08-26T14:29:24.198Z,36.03
2022-08-26T14:31:51.477Z,36.07
2022-08-26T14:34:18.813Z,36.16
2022-08-26T14:36:46.400Z,36.12
2022-08-26T14:39:14.335Z,35.86
2022-08-26T14:41:53.743Z,35.82
2022-08-26T14:44:24.036Z,35.75
2022-08-26T14:46:52.946Z,36.03
2022-08-26T14:49:20.883Z,36.03
2022-08-26T14:51:48.428Z,36.19
2022-08-26T14:54:16.464Z,35.83
2022-08-26T14:56:54.908Z,36.04
2022-08-26T14:59:26.728Z,36.00
2022-08-26T15:01:54.770Z,35.72
2022-08-26T15:04:22.727Z,35.82
2022-08-26T15:06:50.733Z,35.93
2022-08-26T15:09:18.122Z,36.07
2022-08-26T15:11:46.398Z,35.96
2022-08-26T15:14:19.364Z,35.76
2022-08-26T15:16:47.982Z,35.84
2022-08-26T15:19:16.052Z,35.80
2022-08-26T15:21:45.410Z,36.11
2022-08-26T15:24:13.314Z,36.15
2022-08-26T15:26:40.895Z,36.24
2022-08-26T15:29:08.289Z,36.32
2022-08-26T15:31:36.643Z,36.27
2022-08-26T15:34:05.888Z,36.28
2022-08-26T15:36:33.458Z,36.18
2022-08-26T15:39:01.308Z,36.07
2022-08-26T15:41:29.522Z,35.95
2022-08-26T15:43:57.388Z,35.78
2022-08-26T15:46:24.749Z,35.67
2022-08-26T15:48:52.521Z,35.61
2022-08-26T15:51:21.454Z,35.13
2022-08-26T15:53:50.695Z,35.43
2022-08-26T15:56:18.784Z,35.49
2022-08-26T15:58:46.883Z,35.42
2022-08-26T16:01:15.205Z,35.33
2022-08-26T16:03:55.723Z,35.33
2022-08-26T16:06:24.541Z,35.49
2022-08-26T16:08:51.903Z,34.78
2022-08-26T16:11:19.981Z,35.05
2022-08-26T16:13:47.843Z,35.22
2022-08-26T16:16:15.380Z,35.15
2022-08-26T16:18:43.273Z,35.11
2022-08-26T16:21:14.920Z,35.13
2022-08-26T16:23:43.271Z,35.09
2022-08-26T16:26:13.858Z,34.95
2022-08-26T16:28:41.361Z,34.94
2022-08-26T16:31:11.534Z,34.93
2022-08-26T16:33:38.967Z,34.89
2022-08-26T16:36:06.682Z,34.89
2022-08-26T16:38:34.777Z,34.89
2022-08-26T16:41:02.246Z,34.84
2022-08-26T16:43:29.616Z,34.73
2022-08-26T16:45:57.450Z,34.62
2022-08-26T16:48:25.246Z,34.51
2022-08-26T16:50:54.429Z,34.45
2022-08-26T16:53:22.150Z,34.41
2022-08-26T16:55:50.226Z,34.13
2022-08-26T16:58:17.716Z,34.13
2022-08-26T17:00:45.535Z,34.17
2022-08-26T17:03:13.089Z,34.18
2022-08-26T17:05:40.504Z,34.19
2022-08-26T17:08:08.330Z,34.16
2022-08-26T17:10:35.842Z,34.13
2022-08-26T17:13:03.294Z,34.06
2022-08-26T17:15:30.949Z,33.96
2022-08-26T17:17:58.362Z,33.84
2022-08-26T17:20:25.942Z,33.70
2022-08-26T17:22:54.390Z,33.59
2022-08-26T17:25:26.159Z,33.26
2022-08-26T17:27:53.764Z,33.27
2022-08-26T17:30:21.241Z,33.22
2022-08-26T17:32:48.779Z,33.10
2022-08-26T17:35:16.997Z,32.97
2022-08-26T17:37:44.497Z,32.80
2022-08-26T17:40:13.136Z,32.82
2022-08-26T17:42:40.717Z,32.52
2022-08-26T17:45:08.688Z,32.42
2022-08-26T17:47:36.051Z,32.34
2022-08-26T17:50:04.605Z,32.31
2022-08-26T17:52:32.002Z,32.26
2022-08-26T17:54:59.401Z,32.07
2022-08-26T17:57:27.143Z,31.88
2022-08-26T17:59:54.460Z,31.94
2022-08-26T18:02:21.865Z,31.98
2022-08-26T18:04:49.443Z,31.93
2022-08-26T18:07:16.786Z,31.89
2022-08-26T18:09:44.330Z,31.91
2022-08-26T18:12:11.998Z,31.94
2022-08-26T18:14:39.243Z,31.93
2022-08-26T18:17:06.550Z,31.93
2022-08-26T18:19:34.155Z,31.84
2022-08-26T18:22:01.493Z,31.79
2022-08-26T18:24:30.458Z,31.76
2022-08-26T18:26:58.264Z,31.39
2022-08-26T18:29:25.867Z,31.21
2022-08-26T18:31:53.146Z,31.27
2022-08-26T18:34:21.086Z,31.08
2022-08-26T18:36:48.569Z,31.04
2022-08-26T18:39:16.194Z,31.12
2022-08-26T18:41:44.817Z,30.93
2022-08-26T18:44:13.837Z,30.90
2022-08-26T18:46:41.521Z,30.85
2022-08-26T18:49:09.937Z,30.83
2022-08-26T18:51:37.975Z,30.72
2022-08-26T18:54:05.943Z,30.61
2022-08-26T18:56:34.373Z,30.52
2022-08-26T18:59:02.280Z,30.52
2022-08-26T19:01:30.167Z,30.59
2022-08-26T19:03:58.378Z,30.54
2022-08-26T19:06:26.230Z,30.54
2022-08-26T19:08:53.788Z,30.37
2022-08-26T19:11:31.610Z,30.43
2022-08-26T19:14:03.089Z,30.36
2022-08-26T19:16:30.879Z,30.23
2022-08-26T19:18:58.921Z,30.31
2022-08-26T19:21:26.632Z,30.13
2022-08-26T19:23:58.233Z,30.17
2022-08-26T19:26:26.533Z,30.11
2022-08-26T19:28:55.374Z,30.15
2022-08-26T19:31:23.080Z,30.14
2022-08-26T19:33:50.470Z,30.08
2022-08-26T19:36:22.483Z,29.98
2022-08-26T19:38:51.087Z,29.93
2022-08-26T19:41:20.542Z,29.64
2022-08-26T19:43:47.843Z,29.83
2022-08-26T19:46:17.325Z,29.81
2022-08-26T19:48:45.113Z,29.84
2022-08-26T19:51:15.784Z,29.69
2022-08-26T19:53:43.765Z,29.71
2022-08-26T19:56:11.638Z,29.73
2022-08-26T19:58:39.132Z,29.64
2022-08-26T20:01:06.625Z,29.70
2022-08-26T20:03:34.766Z,29.66
2022-08-26T20:06:05.687Z,29.64
2022-08-26T20:08:34.062Z,29.68
2022-08-26T20:11:02.199Z,29.49
2022-08-26T20:13:29.448Z,29.48
2022-08-26T20:15:56.727Z,29.52
2022-08-26T20:18:43.274Z,29.05
2022-08-26T20:21:29.580Z,29.29
2022-08-26T20:24:03.583Z,29.25
2022-08-26T20:26:32.098Z,29.27
2022-08-26T20:28:59.825Z,29.28
2022-08-26T20:31:27.293Z,29.10
2022-08-26T20:33:54.922Z,28.98
2022-08-26T20:36:23.535Z,28.74
2022-08-26T20:38:50.870Z,28.90
2022-08-26T20:41:18.407Z,28.86
2022-08-26T20:43:47.072Z,28.91
2022-08-26T20:46:17.933Z,28.84
2022-08-26T20:48:46.785Z,28.80
2022-08-26T20:51:14.491Z,28.54
2022-08-26T20:53:41.864Z,28.68
2022-08-26T20:56:09.995Z,28.73
2022-08-26T20:58:37.650Z,28.58
2022-08-26T21:01:07.990Z,28.56
2022-08-26T21:03:36.168Z,28.65
2022-08-26T21:06:03.838Z,28.68
2022-08-26T21:08:33.038Z,28.66
2022-08-26T21:11:01.862Z,28.53
2022-08-26T21:13:42.809Z,28.59
2022-08-26T21:16:16.224Z,28.67
2022-08-26T21:18:43.622Z,28.41
2022-08-26T21:21:10.939Z,28.38
2022-08-26T21:23:38.654Z,28.52
2022-08-26T21:26:09.718Z,28.43
2022-08-26T21:28:37.780Z,28.26
2022-08-26T21:31:06.256Z,28.46
2022-08-26T21:33:33.977Z,28.39
2022-08-26T21:36:01.371Z,28.22
2022-08-26T21:38:30.941Z,28.32
2022-08-26T21:40:59.099Z,28.36
2022-08-26T21:43:35.144Z,28.48
2022-08-26T21:46:11.695Z,28.37
2022-08-26T21:48:39.204Z,28.45
2022-08-26T21:51:06.782Z,28.36
2022-08-26T21:53:34.343Z,28.25
2022-08-26T21:56:08.794Z,28.25
2022-08-26T21:58:36.543Z,28.36
2022-08-26T22:01:04.776Z,28.31
2022-08-26T22:03:32.409Z,28.40
2022-08-26T22:06:12.028Z,28.30
2022-08-26T22:08:39.632Z,28.24
2022-08-26T22:11:07.043Z,28.33
2022-08-26T22:13:36.956Z,28.36
2022-08-26T22:16:05.095Z,28.38
2022-08-26T22:18:32.523Z,28.46
2022-08-26T22:21:01.110Z,28.41
2022-08-26T22:23:28.925Z,28.24
2022-08-26T22:25:56.538Z,28.19
2022-08-26T22:28:23.891Z,28.18
2022-08-26T22:30:51.406Z,28.30
2022-08-26T22:33:18.862Z,28.26
2022-08-26T22:35:47.062Z,28.32
2022-08-26T22:38:14.707Z,28.16
2022-08-26T22:40:46.033Z,28.25
2022-08-26T22:43:13.674Z,28.17
2022-08-26T22:45:43.281Z,28.06
2022-08-26T22:48:10.879Z,28.10
2022-08-26T22:50:38.458Z,28.09
2022-08-26T22:53:06.014Z,27.72
2022-08-26T22:55:33.335Z,27.75
2022-08-26T22:58:00.706Z,27.66
2022-08-26T23:00:32.163Z,27.87
2022-08-26T23:03:00.414Z,27.89
2022-08-26T23:05:28.062Z,27.91
2022-08-26T23:07:56.722Z,27.79
2022-08-26T23:10:24.055Z,27.83
2022-08-26T23:12:52.502Z,27.87
2022-08-26T23:15:20.276Z,27.88
2022-08-26T23:17:47.946Z,27.83
2022-08-26T23:20:26.563Z,27.79
2022-08-26T23:22:54.225Z,27.63
2022-08-26T23:25:21.742Z,27.55
2022-08-26T23:27:50.220Z,27.52
2022-08-26T23:30:18.836Z,27.39
2022-08-26T23:32:46.544Z,27.60
2022-08-26T23:35:14.505Z,27.62
2022-08-26T23:37:43.706Z,27.68
2022-08-26T23:40:12.599Z,27.62
2022-08-26T23:42:40.390Z,27.60
2022-08-26T23:45:08.650Z,27.56
2022-08-26T23:47:36.186Z,27.59
2022-08-26T23:50:03.974Z,27.55
2022-08-26T23:52:49.692Z,27.55
2022-08-26T23:55:17.948Z,27.55
2022-08-26T23:57:46.160Z,27.51
